createdAt,value
2024-02-12T06:20:56.883Z,80.54
2024-02-12T06:23:26.692Z,80.60
2024-02-12T06:25:55.385Z,80.51
2024-02-12T06:28:25.229Z,80.47
2024-02-12T06:30:53.821Z,80.34
2024-02-12T06:33:22.752Z,80.23
2024-02-12T06:35:51.494Z,80.14
2024-02-12T06:38:20.102Z,80.12
2024-02-12T06:40:50.389Z,80.10
2024-02-12T06:43:18.905Z,80.09
2024-02-12T06:45:47.761Z,80.05
2024-02-12T06:48:16.441Z,80.06
2024-02-12T06:50:45.975Z,80.10
2024-02-12T06:53:14.989Z,80.13
2024-02-12T06:55:43.576Z,80.13
2024-02-12T06:58:12.243Z,80.15
2024-02-12T07:00:40.899Z,80.17
2024-02-12T07:03:09.749Z,80.19
2024-02-12T07:05:39.360Z,80.19
2024-02-12T07:08:10.493Z,80.22
2024-02-12T07:10:39.049Z,80.26
2024-02-12T07:13:08.430Z,80.28
2024-02-12T07:15:38.384Z,80.26
2024-02-12T07:18:07.124Z,80.28
2024-02-12T07:20:37.085Z,80.23
2024-02-12T07:23:06.078Z,80.23
2024-02-12T07:25:36.491Z,80.26
2024-02-12T07:28:06.467Z,80.14
2024-02-12T07:30:35.264Z,80.13
2024-02-12T07:33:05.726Z,80.07
2024-02-12T07:35:35.147Z,80.01
2024-02-12T07:38:05.723Z,79.93
2024-02-12T07:40:35.252Z,79.91
2024-02-12T07:43:04.161Z,79.82
2024-02-12T07:45:36.058Z,79.62
2024-02-12T07:48:05.790Z,79.45
2024-02-12T07:50:34.869Z,79.44
2024-02-12T07:53:04.731Z,79.37
2024-02-12T07:55:33.658Z,79.29
2024-02-12T07:58:02.410Z,79.30
2024-02-12T08:00:31.172Z,79.38
2024-02-12T08:03:00.462Z,79.18
2024-02-12T08:05:29.266Z,78.93
2024-02-12T08:08:03.306Z,78.86
2024-02-12T08:10:33.196Z,78.80
2024-02-12T08:13:02.845Z,78.89
2024-02-12T08:15:32.374Z,78.88
2024-02-12T08:18:01.405Z,78.75
2024-02-12T08:20:30.400Z,78.41
2024-02-12T08:22:59.460Z,78.22
2024-02-12T08:25:29.456Z,77.91
2024-02-12T08:27:58.215Z,77.50
2024-02-12T08:30:26.838Z,77.41
2024-02-12T08:32:55.830Z,77.50
2024-02-12T08:35:24.597Z,77.05
2024-02-12T08:37:53.059Z,76.72
2024-02-12T08:40:21.790Z,76.33
2024-02-12T08:42:51.810Z,76.41
2024-02-12T08:45:20.577Z,76.04
2024-02-12T08:47:49.401Z,76.02
2024-02-12T08:50:19.092Z,75.95
2024-02-12T08:52:47.651Z,75.97
2024-02-12T08:55:18.116Z,75.95
2024-02-12T08:57:46.990Z,75.66
2024-02-12T09:00:24.110Z,75.14
2024-02-12T09:02:52.858Z,75.29
2024-02-12T09:05:21.705Z,75.19
2024-02-12T09:07:50.391Z,75.40
2024-02-12T09:10:22.742Z,74.92
2024-02-12T09:12:54.050Z,74.68
2024-02-12T09:15:24.097Z,74.64
2024-02-12T09:17:53.850Z,74.26
2024-02-12T09:20:22.819Z,74.29
2024-02-12T09:22:53.308Z,74.32
2024-02-12T09:25:24.684Z,74.45
2024-02-12T09:27:55.029Z,74.06
2024-02-12T09:30:24.521Z,74.07
2024-02-12T09:32:53.611Z,73.80
2024-02-12T09:35:22.538Z,73.49
2024-02-12T09:37:51.809Z,73.25
2024-02-12T09:40:23.807Z,73.57
2024-02-12T09:42:58.303Z,73.61
2024-02-12T09:45:31.052Z,73.15
2024-02-12T09:48:02.924Z,73.14
2024-02-12T09:50:34.370Z,73.32
2024-02-12T09:53:03.477Z,73.05
2024-02-12T09:55:33.567Z,72.36
2024-02-12T09:58:02.150Z,71.36
2024-02-12T10:00:31.483Z,71.74
2024-02-12T10:03:00.538Z,71.33
2024-02-12T10:05:32.461Z,71.17
2024-02-12T10:08:03.285Z,70.85
2024-02-12T10:10:32.586Z,70.97
2024-02-12T10:13:01.212Z,70.75
2024-02-12T10:15:31.244Z,70.57
2024-02-12T10:18:00.025Z,70.75
2024-02-12T10:20:28.607Z,70.46
2024-02-12T10:23:01.220Z,70.46
2024-02-12T10:25:30.269Z,70.39
2024-02-12T10:28:00.060Z,70.59
2024-02-12T10:30:28.946Z,70.68
2024-02-12T10:33:08.153Z,70.39
2024-02-12T10:35:48.440Z,69.88
2024-02-12T10:38:18.552Z,70.02
2024-02-12T10:41:00.264Z,70.00
2024-02-12T10:43:37.633Z,69.31
2024-02-12T10:46:08.872Z,69.52
2024-02-12T10:48:40.155Z,69.20
2024-02-12T10:51:10.029Z,69.04
2024-02-12T10:53:43.294Z,69.35
2024-02-12T10:56:12.552Z,69.65
2024-02-12T10:58:42.038Z,69.23
2024-02-12T11:01:15.725Z,69.19
2024-02-12T11:03:50.714Z,68.33
2024-02-12T11:06:20.600Z,69.03
2024-02-12T11:08:51.632Z,68.79
2024-02-12T11:11:31.689Z,68.23
2024-02-12T11:14:10.973Z,67.42
2024-02-12T11:16:40.389Z,67.14
2024-02-12T11:19:20.720Z,66.94
2024-02-12T11:21:59.609Z,66.94
2024-02-12T11:24:39.426Z,66.59
2024-02-12T11:27:10.541Z,66.54
2024-02-12T11:29:48.318Z,66.58
2024-02-12T11:32:23.737Z,66.67
2024-02-12T11:34:53.273Z,66.70
2024-02-12T11:37:21.918Z,66.53
2024-02-12T11:39:59.770Z,66.11
2024-02-12T11:42:29.463Z,65.73
2024-02-12T11:44:58.188Z,65.20
2024-02-12T11:47:27.246Z,65.70
2024-02-12T11:49:56.581Z,65.96
2024-02-12T11:52:25.188Z,66.13
2024-02-12T11:54:54.125Z,65.32
2024-02-12T11:57:25.622Z,65.37
2024-02-12T11:59:59.491Z,65.24
2024-02-12T12:02:28.706Z,64.81
2024-02-12T12:04:57.714Z,64.79
2024-02-12T12:07:31.231Z,65.24
2024-02-12T12:10:06.456Z,65.45
2024-02-12T12:12:37.193Z,65.77
2024-02-12T12:15:10.876Z,65.48
2024-02-12T12:17:40.127Z,65.41
2024-02-12T12:20:19.833Z,65.85
2024-02-12T12:22:50.052Z,66.36
2024-02-12T12:25:21.767Z,66.43
2024-02-12T12:27:51.881Z,65.72
2024-02-12T12:30:20.853Z,65.79
2024-02-12T12:32:53.147Z,65.54
2024-02-12T12:35:21.980Z,65.61
2024-02-12T12:37:52.770Z,65.64
2024-02-12T12:40:21.714Z,65.52
2024-02-12T12:42:52.136Z,65.64
2024-02-12T12:45:22.987Z,65.27
2024-02-12T12:47:52.169Z,64.63
2024-02-12T12:50:21.005Z,63.81
2024-02-12T12:52:50.134Z,63.33
2024-02-12T12:55:21.658Z,63.93
2024-02-12T12:57:53.235Z,64.32
2024-02-12T13:00:28.608Z,64.33
2024-02-12T13:02:57.922Z,64.74
2024-02-12T13:05:27.222Z,64.41
2024-02-12T13:08:17.548Z,64.61
2024-02-12T13:10:48.024Z,64.66
2024-02-12T13:13:41.957Z,65.05
2024-02-12T13:16:10.836Z,65.57
2024-02-12T13:18:39.772Z,65.81
2024-02-12T13:21:08.645Z,65.94
2024-02-12T13:23:38.265Z,66.09
2024-02-12T13:26:13.997Z,66.12
2024-02-12T13:28:44.255Z,66.01
2024-02-12T13:34:33.344Z,66.20
2024-02-12T13:37:02.115Z,66.33
2024-02-12T13:39:31.845Z,65.94
2024-02-12T13:42:00.492Z,65.85
2024-02-12T13:44:29.136Z,65.89
2024-02-12T13:46:58.810Z,66.03
2024-02-12T13:49:27.609Z,66.01
2024-02-12T13:51:57.072Z,65.50
2024-02-12T13:54:27.767Z,65.44
2024-02-12T13:56:56.355Z,65.08
2024-02-12T13:59:26.107Z,65.16
2024-02-12T14:02:00.726Z,65.22
2024-02-12T14:04:33.390Z,65.27
2024-02-12T14:07:02.421Z,65.60
2024-02-12T14:09:31.537Z,65.43
2024-02-12T14:12:00.086Z,65.34
2024-02-12T14:14:28.946Z,65.63
2024-02-12T14:16:57.621Z,65.58
2024-02-12T14:19:26.444Z,65.43
2024-02-12T14:21:56.500Z,65.53
2024-02-12T14:24:25.232Z,66.17
2024-02-12T14:26:59.817Z,66.43
2024-02-12T14:29:29.972Z,66.54
2024-02-12T14:32:37.229Z,66.62
2024-02-12T14:34:48.435Z,67.17
2024-02-12T14:37:17.586Z,67.58
2024-02-12T14:39:46.389Z,68.03
2024-02-12T14:42:17.561Z,68.44
2024-02-12T14:44:46.504Z,68.74
2024-02-12T14:47:15.283Z,68.91
2024-02-12T14:49:46.418Z,69.12
2024-02-12T14:52:15.068Z,69.26
2024-02-12T14:54:43.719Z,69.42
2024-02-12T14:57:13.498Z,69.55
2024-02-12T14:59:42.817Z,69.75
2024-02-12T15:02:17.598Z,69.72
2024-02-12T15:04:47.325Z,69.65
2024-02-12T15:07:19.049Z,69.66
2024-02-12T15:09:48.505Z,69.68
2024-02-12T15:12:24.823Z,69.61
2024-02-12T15:14:54.384Z,69.54
2024-02-12T15:17:22.958Z,69.50
2024-02-12T15:19:51.747Z,69.50
2024-02-12T15:22:24.749Z,69.47
2024-02-12T15:24:54.520Z,69.55
2024-02-12T15:27:23.122Z,69.53
2024-02-12T15:29:51.785Z,69.68
2024-02-12T15:32:24.565Z,69.74
2024-02-12T15:34:54.096Z,69.87
2024-02-12T15:37:23.006Z,70.08
2024-02-12T15:39:51.548Z,70.20
2024-02-12T15:42:24.240Z,70.34
2024-02-12T15:44:53.901Z,70.31
2024-02-12T15:47:22.835Z,70.53
2024-02-12T15:49:53.499Z,70.84
2024-02-12T15:52:27.085Z,70.94
2024-02-12T15:54:56.711Z,71.02
2024-02-12T15:57:27.836Z,71.06
2024-02-12T15:59:56.565Z,71.40
2024-02-12T16:02:25.575Z,71.47
2024-02-12T16:04:54.593Z,71.47
2024-02-12T16:07:23.426Z,71.62
2024-02-12T16:09:52.053Z,71.97
2024-02-12T16:12:22.239Z,72.32
2024-02-12T16:14:52.258Z,72.62
2024-02-12T16:17:21.221Z,72.82
2024-02-12T16:19:50.578Z,73.20
2024-02-12T16:22:20.552Z,73.48
2024-02-12T16:24:49.883Z,73.30
2024-02-12T16:27:18.763Z,73.47
2024-02-12T16:29:48.512Z,73.85
2024-02-12T16:32:17.619Z,74.26
2024-02-12T16:34:48.337Z,74.80
2024-02-12T16:37:17.207Z,74.44
2024-02-12T16:39:46.016Z,74.92
2024-02-12T16:42:14.764Z,75.21
2024-02-12T16:44:44.439Z,75.17
2024-02-12T16:47:13.275Z,75.40
2024-02-12T16:49:42.062Z,75.79
2024-02-12T16:52:12.083Z,76.00
2024-02-12T16:54:42.180Z,76.23
2024-02-12T16:57:11.077Z,76.09
2024-02-12T16:59:40.074Z,76.35
2024-02-12T17:02:14.254Z,76.16
2024-02-12T17:04:43.001Z,74.53
2024-02-12T17:07:12.267Z,74.23
2024-02-12T17:09:42.982Z,74.60
2024-02-12T17:12:12.348Z,75.02
2024-02-12T17:14:44.138Z,75.05
2024-02-12T17:17:13.321Z,74.94
2024-02-12T17:19:43.136Z,75.33
2024-02-12T17:22:13.280Z,75.70
2024-02-12T17:24:42.390Z,75.64
2024-02-12T17:27:14.461Z,75.35
2024-02-12T17:29:44.581Z,75.10
2024-02-12T17:32:13.991Z,75.07
2024-02-12T17:34:43.130Z,75.14
2024-02-12T17:37:12.265Z,74.95
2024-02-12T17:39:40.856Z,74.93
2024-02-12T17:42:10.566Z,74.91
2024-02-12T17:44:39.278Z,74.99
2024-02-12T17:47:09.602Z,75.08
2024-02-12T17:49:39.418Z,75.09
2024-02-12T17:52:09.615Z,75.06
2024-02-12T17:54:38.271Z,75.25
2024-02-12T17:57:10.128Z,75.50
2024-02-12T17:59:38.862Z,75.70
2024-02-12T18:02:09.034Z,75.71
2024-02-12T18:04:39.284Z,75.68
2024-02-12T18:07:14.743Z,75.51
2024-02-12T18:09:44.826Z,75.56
2024-02-12T18:12:22.501Z,75.86
2024-02-12T18:14:51.966Z,75.70
2024-02-12T18:17:25.643Z,75.59
2024-02-12T18:19:57.756Z,75.80
2024-02-12T18:22:27.048Z,76.10
2024-02-12T18:24:55.774Z,76.37
2024-02-12T18:27:24.356Z,76.78
2024-02-12T18:29:53.105Z,76.97
2024-02-12T18:32:22.770Z,77.01
2024-02-12T18:34:51.919Z,76.86
2024-02-12T18:37:20.583Z,77.00
2024-02-12T18:39:49.588Z,77.12
2024-02-12T18:42:19.125Z,77.38
2024-02-12T18:44:47.955Z,77.61
2024-02-12T18:47:17.010Z,78.07
2024-02-12T18:49:45.656Z,78.21
2024-02-12T18:52:14.478Z,78.40
2024-02-12T18:54:43.779Z,78.35
2024-02-12T18:57:12.694Z,78.40
2024-02-12T18:59:42.941Z,78.40
2024-02-12T19:02:11.810Z,78.40
2024-02-12T19:04:40.570Z,78.37
2024-02-12T19:07:09.923Z,78.30
2024-02-12T19:09:39.032Z,78.24
2024-02-12T19:12:08.798Z,78.17
2024-02-12T19:14:37.625Z,78.12
2024-02-12T19:17:09.518Z,78.15
2024-02-12T19:19:38.856Z,78.01
2024-02-12T19:22:07.446Z,78.06
2024-02-12T19:24:37.816Z,78.16
2024-02-12T19:27:06.581Z,78.17
2024-02-12T19:29:35.285Z,78.12
2024-02-12T19:32:09.974Z,78.13
2024-02-12T19:34:40.676Z,78.21
2024-02-12T19:37:09.538Z,78.09
2024-02-12T19:39:38.573Z,77.95
2024-02-12T19:42:08.151Z,77.89
2024-02-12T19:44:37.050Z,77.94
2024-02-12T19:47:08.561Z,77.79
2024-02-12T19:49:37.111Z,77.82
2024-02-12T19:52:06.150Z,77.75
2024-02-12T19:54:35.008Z,77.82
2024-02-12T19:57:05.078Z,77.91
2024-02-12T19:59:33.805Z,77.95
2024-02-12T20:02:03.703Z,78.04
2024-02-12T20:04:35.341Z,78.30
2024-02-12T20:07:04.918Z,78.31
2024-02-12T20:09:33.581Z,78.20
2024-02-12T20:12:02.377Z,78.24
2024-02-12T20:14:31.230Z,78.40
2024-02-12T20:16:59.844Z,78.59
2024-02-12T20:19:28.970Z,78.68
2024-02-12T20:21:57.629Z,78.55
2024-02-12T20:24:26.782Z,78.61
2024-02-12T20:26:55.439Z,78.80
2024-02-12T20:29:24.148Z,78.75
2024-02-12T20:31:52.725Z,78.78
2024-02-12T20:34:22.071Z,78.88
2024-02-12T20:36:50.793Z,78.78
2024-02-12T20:39:19.835Z,78.82
2024-02-12T20:41:48.587Z,78.98
2024-02-12T20:44:17.267Z,79.00
2024-02-12T20:46:45.928Z,78.99
2024-02-12T20:49:14.588Z,79.01
2024-02-12T20:51:43.289Z,79.15
2024-02-12T20:54:12.976Z,79.20
2024-02-12T20:56:42.070Z,79.22
2024-02-12T20:59:11.122Z,79.28
2024-02-12T21:01:39.879Z,79.28
2024-02-12T21:04:10.803Z,79.28
2024-02-12T21:06:39.673Z,79.42
2024-02-12T21:09:10.445Z,79.63
2024-02-12T21:11:40.419Z,79.72
2024-02-12T21:14:09.171Z,79.78
2024-02-12T21:16:39.844Z,79.91
2024-02-12T21:19:08.885Z,80.10
2024-02-12T21:21:38.876Z,80.26
2024-02-12T21:24:12.759Z,80.59
2024-02-12T21:26:41.877Z,80.72
2024-02-12T21:29:12.338Z,80.80
2024-02-12T21:31:41.523Z,80.81
2024-02-12T21:34:18.342Z,80.99
2024-02-12T21:36:47.875Z,78.49
2024-02-12T21:39:35.511Z,77.75
2024-02-12T21:42:25.152Z,77.10
2024-02-12T21:44:56.493Z,76.58
2024-02-12T21:47:25.785Z,76.76
2024-02-12T21:49:55.597Z,76.53
2024-02-12T21:52:27.407Z,76.88
2024-02-12T21:54:56.222Z,77.35
2024-02-12T21:57:25.085Z,77.99
2024-02-12T21:59:55.457Z,78.65
2024-02-12T22:02:24.977Z,79.10
2024-02-12T22:04:54.717Z,79.64
2024-02-12T22:07:24.430Z,79.92
2024-02-12T22:09:53.257Z,80.14
2024-02-12T22:12:22.322Z,80.28
2024-02-12T22:14:52.574Z,80.42
2024-02-12T22:17:24.523Z,80.61
2024-02-12T22:19:55.534Z,80.78
2024-02-12T22:22:24.125Z,81.05
2024-02-12T22:24:52.969Z,81.25
2024-02-12T22:27:21.609Z,81.37
2024-02-12T22:29:50.391Z,81.41
2024-02-12T22:32:19.046Z,81.50
2024-02-12T22:34:48.046Z,81.62
2024-02-12T22:37:17.463Z,81.68
2024-02-12T22:39:45.993Z,81.69
2024-02-12T22:42:14.597Z,81.52
2024-02-12T22:44:43.184Z,81.49
2024-02-12T22:47:12.201Z,81.39
2024-02-12T22:49:42.004Z,81.41
2024-02-12T22:52:13.642Z,81.39
2024-02-12T22:54:42.326Z,81.46
2024-02-12T22:57:11.661Z,81.36
